sensor_id;sensor_type;location;lat;lon;timestamp;temperature;humidity
64858;SHT30;51335;51.148;6.950;2023-01-28T00:00:28;2.39;87.04
64858;SHT30;51335;51.148;6.950;2023-01-28T00:01:04;2.38;87.10
64858;SHT30;51335;51.148;6.950;2023-01-28T00:01:34;2.38;87.13
64858;SHT30;51335;51.148;6.950;2023-01-28T00:02:04;2.36;87.07
64858;SHT30;51335;51.148;6.950;2023-01-28T00:02:35;2.33;87.18
64858;SHT30;51335;51.148;6.950;2023-01-28T00:03:05;2.35;87.40
64858;SHT30;51335;51.148;6.950;2023-01-28T00:03:35;2.43;87.13
64858;SHT30;51335;51.148;6.950;2023-01-28T00:04:06;2.45;86.95
64858;SHT30;51335;51.148;6.950;2023-01-28T00:04:36;2.40;86.85
64858;SHT30;51335;51.148;6.950;2023-01-28T00:05:07;2.38;86.86
64858;SHT30;51335;51.148;6.950;2023-01-28T00:05:37;2.42;87.15
64858;SHT30;51335;51.148;6.950;2023-01-28T00:06:13;2.43;87.04
64858;SHT30;51335;51.148;6.950;2023-01-28T00:06:43;2.45;87.08
64858;SHT30;51335;51.148;6.950;2023-01-28T00:07:13;2.46;87.09
64858;SHT30;51335;51.148;6.950;2023-01-28T00:07:44;2.46;86.88
64858;SHT30;51335;51.148;6.950;2023-01-28T00:08:14;2.50;86.92
64858;SHT30;51335;51.148;6.950;2023-01-28T00:08:44;2.46;86.84
64858;SHT30;51335;51.148;6.950;2023-01-28T00:09:14;2.39;86.82
64858;SHT30;51335;51.148;6.950;2023-01-28T00:09:45;2.35;87.15
64858;SHT30;51335;51.148;6.950;2023-01-28T00:10:15;2.36;87.31
64858;SHT30;51335;51.148;6.950;2023-01-28T00:10:46;2.38;87.40
64858;SHT30;51335;51.148;6.950;2023-01-28T00:11:16;2.36;87.28
64858;SHT30;51335;51.148;6.950;2023-01-28T00:11:46;2.38;87.33
64858;SHT30;51335;51.148;6.950;2023-01-28T00:12:16;2.33;87.39
64858;SHT30;51335;51.148;6.950;2023-01-28T00:12:47;2.38;87.59
64858;SHT30;51335;51.148;6.950;2023-01-28T00:13:17;2.33;87.51
64858;SHT30;51335;51.148;6.950;2023-01-28T00:13:51;2.25;87.53
64858;SHT30;51335;51.148;6.950;2023-01-28T00:14:21;2.32;87.76
64858;SHT30;51335;51.148;6.950;2023-01-28T00:14:51;2.33;87.75
64858;SHT30;51335;51.148;6.950;2023-01-28T00:15:22;2.29;87.64
64858;SHT30;51335;51.148;6.950;2023-01-28T00:16:00;2.26;87.89
64858;SHT30;51335;51.148;6.950;2023-01-28T00:16:31;2.26;87.98
64858;SHT30;51335;51.148;6.950;2023-01-28T00:17:04;2.22;88.05
64858;SHT30;51335;51.148;6.950;2023-01-28T00:17:34;2.29;88.20
64858;SHT30;51335;51.148;6.950;2023-01-28T00:18:04;2.32;88.06
64858;SHT30;51335;51.148;6.950;2023-01-28T00:18:35;2.35;87.98
64858;SHT30;51335;51.148;6.950;2023-01-28T00:19:06;2.40;87.84
64858;SHT30;51335;51.148;6.950;2023-01-28T00:19:36;2.46;87.74
64858;SHT30;51335;51.148;6.950;2023-01-28T00:20:07;2.45;87.66
64858;SHT30;51335;51.148;6.950;2023-01-28T00:20:37;2.46;87.55
64858;SHT30;51335;51.148;6.950;2023-01-28T00:21:10;2.50;87.57
64858;SHT30;51335;51.148;6.950;2023-01-28T00:21:40;2.46;87.51
64858;SHT30;51335;51.148;6.950;2023-01-28T00:22:11;2.47;87.53
64858;SHT30;51335;51.148;6.950;2023-01-28T00:22:46;2.49;87.51
64858;SHT30;51335;51.148;6.950;2023-01-28T00:23:16;2.49;87.45
64858;SHT30;51335;51.148;6.950;2023-01-28T00:23:50;2.49;87.48
64858;SHT30;51335;51.148;6.950;2023-01-28T00:24:20;2.49;87.46
64858;SHT30;51335;51.148;6.950;2023-01-28T00:24:51;2.47;87.50
64858;SHT30;51335;51.148;6.950;2023-01-28T00:25:21;2.46;87.60
64858;SHT30;51335;51.148;6.950;2023-01-28T00:25:52;2.50;87.58
64858;SHT30;51335;51.148;6.950;2023-01-28T00:26:23;2.49;87.56
64858;SHT30;51335;51.148;6.950;2023-01-28T00:26:53;2.47;87.51
64858;SHT30;51335;51.148;6.950;2023-01-28T00:27:23;2.49;87.57
64858;SHT30;51335;51.148;6.950;2023-01-28T00:27:54;2.46;87.58
64858;SHT30;51335;51.148;6.950;2023-01-28T00:28:24;2.52;87.62
64858;SHT30;51335;51.148;6.950;2023-01-28T00:28:54;2.56;87.56
64858;SHT30;51335;51.148;6.950;2023-01-28T00:29:24;2.54;87.50
64858;SHT30;51335;51.148;6.950;2023-01-28T00:29:55;2.57;87.46
64858;SHT30;51335;51.148;6.950;2023-01-28T00:30:25;2.59;87.46
64858;SHT30;51335;51.148;6.950;2023-01-28T00:30:55;2.56;87.37
64858;SHT30;51335;51.148;6.950;2023-01-28T00:31:26;2.57;87.44
64858;SHT30;51335;51.148;6.950;2023-01-28T00:31:57;2.59;87.44
64858;SHT30;51335;51.148;6.950;2023-01-28T00:32:27;2.60;87.45
64858;SHT30;51335;51.148;6.950;2023-01-28T00:32:57;2.59;87.43
64858;SHT30;51335;51.148;6.950;2023-01-28T00:33:27;2.56;87.40
64858;SHT30;51335;51.148;6.950;2023-01-28T00:33:58;2.52;87.50
64858;SHT30;51335;51.148;6.950;2023-01-28T00:34:28;2.54;87.72
64858;SHT30;51335;51.148;6.950;2023-01-28T00:34:58;2.56;87.77
64858;SHT30;51335;51.148;6.950;2023-01-28T00:35:28;2.60;87.73
64858;SHT30;51335;51.148;6.950;2023-01-28T00:35:59;2.59;87.71
64858;SHT30;51335;51.148;6.950;2023-01-28T00:36:30;2.59;87.70
64858;SHT30;51335;51.148;6.950;2023-01-28T00:37:00;2.57;87.70
64858;SHT30;51335;51.148;6.950;2023-01-28T00:37:30;2.59;87.71
64858;SHT30;51335;51.148;6.950;2023-01-28T00:38:01;2.59;87.72
64858;SHT30;51335;51.148;6.950;2023-01-28T00:38:31;2.61;87.63
64858;SHT30;51335;51.148;6.950;2023-01-28T00:39:02;2.61;87.67
64858;SHT30;51335;51.148;6.950;2023-01-28T00:39:32;2.60;87.69
64858;SHT30;51335;51.148;6.950;2023-01-28T00:40:03;2.59;87.62
64858;SHT30;51335;51.148;6.950;2023-01-28T00:40:33;2.57;87.77
64858;SHT30;51335;51.148;6.950;2023-01-28T00:41:13;2.60;87.76
64858;SHT30;51335;51.148;6.950;2023-01-28T00:41:44;2.57;87.74
64858;SHT30;51335;51.148;6.950;2023-01-28T00:42:14;2.57;87.73
64858;SHT30;51335;51.148;6.950;2023-01-28T00:42:44;2.57;87.78
64858;SHT30;51335;51.148;6.950;2023-01-28T00:43:15;2.52;87.72
64858;SHT30;51335;51.148;6.950;2023-01-28T00:43:45;2.50;87.90
64858;SHT30;51335;51.148;6.950;2023-01-28T00:44:15;2.46;87.97
64858;SHT30;51335;51.148;6.950;2023-01-28T00:44:45;2.45;88.11
64858;SHT30;51335;51.148;6.950;2023-01-28T00:45:16;2.47;88.12
64858;SHT30;51335;51.148;6.950;2023-01-28T00:45:46;2.49;88.08
64858;SHT30;51335;51.148;6.950;2023-01-28T00:46:17;2.45;88.05
64858;SHT30;51335;51.148;6.950;2023-01-28T00:46:47;2.40;88.08
64858;SHT30;51335;51.148;6.950;2023-01-28T00:47:17;2.39;88.24
64858;SHT30;51335;51.148;6.950;2023-01-28T00:47:48;2.29;88.14
64858;SHT30;51335;51.148;6.950;2023-01-28T00:48:18;2.30;88.48
64858;SHT30;51335;51.148;6.950;2023-01-28T00:48:48;2.33;88.59
64858;SHT30;51335;51.148;6.950;2023-01-28T00:49:19;2.33;88.54
64858;SHT30;51335;51.148;6.950;2023-01-28T00:49:49;2.33;88.52
64858;SHT30;51335;51.148;6.950;2023-01-28T00:50:19;2.33;88.56
64858;SHT30;51335;51.148;6.950;2023-01-28T00:50:50;2.35;88.54
64858;SHT30;51335;51.148;6.950;2023-01-28T00:51:20;2.28;88.46
64858;SHT30;51335;51.148;6.950;2023-01-28T00:51:50;2.21;88.49
64858;SHT30;51335;51.148;6.950;2023-01-28T00:52:20;2.18;88.71
64858;SHT30;51335;51.148;6.950;2023-01-28T00:52:51;2.14;88.88
64858;SHT30;51335;51.148;6.950;2023-01-28T00:53:21;2.21;89.04
64858;SHT30;51335;51.148;6.950;2023-01-28T00:53:51;2.21;88.98
64858;SHT30;51335;51.148;6.950;2023-01-28T00:54:22;2.19;88.90
64858;SHT30;51335;51.148;6.950;2023-01-28T00:54:52;2.15;88.93
64858;SHT30;51335;51.148;6.950;2023-01-28T00:55:22;2.18;88.99
64858;SHT30;51335;51.148;6.950;2023-01-28T00:55:52;2.14;88.98
64858;SHT30;51335;51.148;6.950;2023-01-28T00:56:23;2.07;88.88
64858;SHT30;51335;51.148;6.950;2023-01-28T00:56:53;2.02;89.20
64858;SHT30;51335;51.148;6.950;2023-01-28T00:57:23;1.95;89.33
64858;SHT30;51335;51.148;6.950;2023-01-28T00:57:54;1.94;89.48
64858;SHT30;51335;51.148;6.950;2023-01-28T00:58:24;1.97;89.66
64858;SHT30;51335;51.148;6.950;2023-01-28T00:58:54;1.93;89.57
64858;SHT30;51335;51.148;6.950;2023-01-28T00:59:25;1.84;89.66
64858;SHT30;51335;51.148;6.950;2023-01-28T00:59:55;1.77;89.95
64858;SHT30;51335;51.148;6.950;2023-01-28T01:00:25;1.81;90.03
64858;SHT30;51335;51.148;6.950;2023-01-28T01:00:55;1.88;89.99
64858;SHT30;51335;51.148;6.950;2023-01-28T01:01:27;1.95;89.79
64858;SHT30;51335;51.148;6.950;2023-01-28T01:01:57;1.97;89.66
64858;SHT30;51335;51.148;6.950;2023-01-28T01:02:27;1.98;89.50
64858;SHT30;51335;51.148;6.950;2023-01-28T01:02:58;2.01;89.50
64858;SHT30;51335;51.148;6.950;2023-01-28T01:03:28;1.99;89.37
64858;SHT30;51335;51.148;6.950;2023-01-28T01:03:59;2.01;89.32
64858;SHT30;51335;51.148;6.950;2023-01-28T01:04:29;1.93;89.06
64858;SHT30;51335;51.148;6.950;2023-01-28T01:04:59;1.88;89.20
64858;SHT30;51335;51.148;6.950;2023-01-28T01:05:29;1.80;89.46
64858;SHT30;51335;51.148;6.950;2023-01-28T01:06:00;1.81;89.83
64858;SHT30;51335;51.148;6.950;2023-01-28T01:06:38;1.73;89.91
64858;SHT30;51335;51.148;6.950;2023-01-28T01:07:09;1.74;90.06
64858;SHT30;51335;51.148;6.950;2023-01-28T01:07:39;1.71;90.01
64858;SHT30;51335;51.148;6.950;2023-01-28T01:08:09;1.73;90.21
64858;SHT30;51335;51.148;6.950;2023-01-28T01:08:40;1.67;90.19
64858;SHT30;51335;51.148;6.950;2023-01-28T01:09:10;1.64;90.29
64858;SHT30;51335;51.148;6.950;2023-01-28T01:09:41;1.57;90.49
64858;SHT30;51335;51.148;6.950;2023-01-28T01:10:14;1.53;90.66
64858;SHT30;51335;51.148;6.950;2023-01-28T01:10:45;1.50;90.93
64858;SHT30;51335;51.148;6.950;2023-01-28T01:11:15;1.54;91.02
64858;SHT30;51335;51.148;6.950;2023-01-28T01:11:45;1.57;90.83
64858;SHT30;51335;51.148;6.950;2023-01-28T01:12:16;1.63;90.66
64858;SHT30;51335;51.148;6.950;2023-01-28T01:12:47;1.61;90.58
64858;SHT30;51335;51.148;6.950;2023-01-28T01:13:18;1.57;90.56
64858;SHT30;51335;51.148;6.950;2023-01-28T01:13:53;1.54;90.84
64858;SHT30;51335;51.148;6.950;2023-01-28T01:14:23;1.60;90.82
64858;SHT30;51335;51.148;6.950;2023-01-28T01:14:53;1.53;90.54
64858;SHT30;51335;51.148;6.950;2023-01-28T01:15:24;1.63;90.63
64858;SHT30;51335;51.148;6.950;2023-01-28T01:16:01;1.70;90.47
64858;SHT30;51335;51.148;6.950;2023-01-28T01:16:31;1.68;90.32
64858;SHT30;51335;51.148;6.950;2023-01-28T01:17:01;1.70;90.27
64858;SHT30;51335;51.148;6.950;2023-01-28T01:17:32;1.74;90.15
64858;SHT30;51335;51.148;6.950;2023-01-28T01:18:02;1.75;90.06
64858;SHT30;51335;51.148;6.950;2023-01-28T01:18:33;1.77;90.00
64858;SHT30;51335;51.148;6.950;2023-01-28T01:19:04;1.73;89.95
64858;SHT30;51335;51.148;6.950;2023-01-28T01:19:35;1.75;89.98
64858;SHT30;51335;51.148;6.950;2023-01-28T01:20:20;1.77;90.03
64858;SHT30;51335;51.148;6.950;2023-01-28T01:20:51;1.75;89.92
64858;SHT30;51335;51.148;6.950;2023-01-28T01:21:23;1.71;89.86
64858;SHT30;51335;51.148;6.950;2023-01-28T01:21:55;1.67;89.90
64858;SHT30;51335;51.148;6.950;2023-01-28T01:22:26;1.71;90.09
64858;SHT30;51335;51.148;6.950;2023-01-28T01:22:56;1.71;90.00
64858;SHT30;51335;51.148;6.950;2023-01-28T01:23:28;1.67;89.98
64858;SHT30;51335;51.148;6.950;2023-01-28T01:23:58;1.59;90.02
64858;SHT30;51335;51.148;6.950;2023-01-28T01:24:28;1.51;90.29
64858;SHT30;51335;51.148;6.950;2023-01-28T01:24:59;1.46;90.53
64858;SHT30;51335;51.148;6.950;2023-01-28T01:25:29;1.44;90.76
64858;SHT30;51335;51.148;6.950;2023-01-28T01:26:00;1.50;90.76
64858;SHT30;51335;51.148;6.950;2023-01-28T01:26:30;1.47;90.60
64858;SHT30;51335;51.148;6.950;2023-01-28T01:27:00;1.39;90.80
64858;SHT30;51335;51.148;6.950;2023-01-28T01:27:31;1.36;90.93
64858;SHT30;51335;51.148;6.950;2023-01-28T01:28:01;1.39;91.07
64858;SHT30;51335;51.148;6.950;2023-01-28T01:28:32;1.42;90.86
64858;SHT30;51335;51.148;6.950;2023-01-28T01:29:02;1.49;90.79
64858;SHT30;51335;51.148;6.950;2023-01-28T01:29:33;1.47;90.65
64858;SHT30;51335;51.148;6.950;2023-01-28T01:30:04;1.40;90.47
64858;SHT30;51335;51.148;6.950;2023-01-28T01:30:34;1.42;90.63
64858;SHT30;51335;51.148;6.950;2023-01-28T01:31:11;1.46;90.71
64858;SHT30;51335;51.148;6.950;2023-01-28T01:31:42;1.46;90.55
64858;SHT30;51335;51.148;6.950;2023-01-28T01:32:13;1.44;90.48
64858;SHT30;51335;51.148;6.950;2023-01-28T01:32:43;1.46;90.47
64858;SHT30;51335;51.148;6.950;2023-01-28T01:33:14;1.44;90.56
64858;SHT30;51335;51.148;6.950;2023-01-28T01:33:46;1.49;90.46
64858;SHT30;51335;51.148;6.950;2023-01-28T01:34:17;1.44;90.36
64858;SHT30;51335;51.148;6.950;2023-01-28T01:34:47;1.49;90.43
64858;SHT30;51335;51.148;6.950;2023-01-28T01:35:18;1.49;90.33
64858;SHT30;51335;51.148;6.950;2023-01-28T01:35:52;1.47;90.28
64858;SHT30;51335;51.148;6.950;2023-01-28T01:36:22;1.47;90.25
64858;SHT30;51335;51.148;6.950;2023-01-28T01:36:53;1.50;90.29
64858;SHT30;51335;51.148;6.950;2023-01-28T01:37:23;1.50;90.28
64858;SHT30;51335;51.148;6.950;2023-01-28T01:37:53;1.50;90.27
64858;SHT30;51335;51.148;6.950;2023-01-28T01:38:24;1.50;90.26
64858;SHT30;51335;51.148;6.950;2023-01-28T01:38:54;1.46;90.27
64858;SHT30;51335;51.148;6.950;2023-01-28T01:39:24;1.50;90.31
64858;SHT30;51335;51.148;6.950;2023-01-28T01:39:55;1.47;90.22
64858;SHT30;51335;51.148;6.950;2023-01-28T01:40:27;1.51;90.22
64858;SHT30;51335;51.148;6.950;2023-01-28T01:40:59;1.44;90.07
64858;SHT30;51335;51.148;6.950;2023-01-28T01:41:31;1.36;90.15
64858;SHT30;51335;51.148;6.950;2023-01-28T01:42:02;1.35;90.35
64858;SHT30;51335;51.148;6.950;2023-01-28T01:42:32;1.38;90.48
64858;SHT30;51335;51.148;6.950;2023-01-28T01:43:14;1.42;90.38
64858;SHT30;51335;51.148;6.950;2023-01-28T01:43:50;1.42;90.25
64858;SHT30;51335;51.148;6.950;2023-01-28T01:45:30;1.33;90.09
64858;SHT30;51335;51.148;6.950;2023-01-28T01:46:02;1.35;90.22
64858;SHT30;51335;51.148;6.950;2023-01-28T01:47:07;1.39;90.18
64858;SHT30;51335;51.148;6.950;2023-01-28T01:48:27;1.43;90.05
64858;SHT30;51335;51.148;6.950;2023-01-28T01:49:35;1.39;90.08
64858;SHT30;51335;51.148;6.950;2023-01-28T01:50:07;1.36;90.04
64858;SHT30;51335;51.148;6.950;2023-01-28T01:50:42;1.33;89.97
64858;SHT30;51335;51.148;6.950;2023-01-28T01:51:20;1.29;89.94
64858;SHT30;51335;51.148;6.950;2023-01-28T01:52:15;1.20;90.26
64858;SHT30;51335;51.148;6.950;2023-01-28T01:52:50;1.13;90.46
64858;SHT30;51335;51.148;6.950;2023-01-28T01:53:23;1.08;90.57
64858;SHT30;51335;51.148;6.950;2023-01-28T01:53:54;1.06;90.89
64858;SHT30;51335;51.148;6.950;2023-01-28T01:54:26;0.98;91.13
64858;SHT30;51335;51.148;6.950;2023-01-28T01:54:59;0.96;91.33
64858;SHT30;51335;51.148;6.950;2023-01-28T01:55:32;0.92;91.45
64858;SHT30;51335;51.148;6.950;2023-01-28T01:56:06;0.87;91.73
64858;SHT30;51335;51.148;6.950;2023-01-28T01:56:40;0.82;91.91
64858;SHT30;51335;51.148;6.950;2023-01-28T01:57:15;0.78;92.00
64858;SHT30;51335;51.148;6.950;2023-01-28T01:57:48;0.74;91.94
64858;SHT30;51335;51.148;6.950;2023-01-28T01:58:23;0.72;92.32
64858;SHT30;51335;51.148;6.950;2023-01-28T01:58:55;0.70;92.34
64858;SHT30;51335;51.148;6.950;2023-01-28T01:59:29;0.65;92.65
64858;SHT30;51335;51.148;6.950;2023-01-28T02:00:04;0.62;92.64
64858;SHT30;51335;51.148;6.950;2023-01-28T02:00:35;0.61;92.79
64858;SHT30;51335;51.148;6.950;2023-01-28T02:01:06;0.54;93.07
64858;SHT30;51335;51.148;6.950;2023-01-28T02:01:36;0.57;93.25
64858;SHT30;51335;51.148;6.950;2023-01-28T02:02:07;0.57;93.46
64858;SHT30;51335;51.148;6.950;2023-01-28T02:02:41;0.54;93.34
64858;SHT30;51335;51.148;6.950;2023-01-28T02:03:12;0.51;93.43
64858;SHT30;51335;51.148;6.950;2023-01-28T02:04:33;0.46;93.55
64858;SHT30;51335;51.148;6.950;2023-01-28T02:05:06;0.51;93.69
64858;SHT30;51335;51.148;6.950;2023-01-28T02:05:37;0.50;93.68
64858;SHT30;51335;51.148;6.950;2023-01-28T02:06:08;0.56;93.49
64858;SHT30;51335;51.148;6.950;2023-01-28T02:06:39;0.53;93.41
64858;SHT30;51335;51.148;6.950;2023-01-28T02:07:13;0.53;93.49
64858;SHT30;51335;51.148;6.950;2023-01-28T02:07:45;0.54;93.49
64858;SHT30;51335;51.148;6.950;2023-01-28T02:08:16;0.65;93.36
64858;SHT30;51335;51.148;6.950;2023-01-28T02:08:46;0.71;93.05
64858;SHT30;51335;51.148;6.950;2023-01-28T02:09:29;0.81;92.61
64858;SHT30;51335;51.148;6.950;2023-01-28T02:09:59;0.87;92.27
64858;SHT30;51335;51.148;6.950;2023-01-28T02:10:30;0.92;92.05
64858;SHT30;51335;51.148;6.950;2023-01-28T02:11:04;0.89;91.79
64858;SHT30;51335;51.148;6.950;2023-01-28T02:11:35;0.80;91.65
64858;SHT30;51335;51.148;6.950;2023-01-28T02:12:35;0.77;91.79
64858;SHT30;51335;51.148;6.950;2023-01-28T02:13:06;0.87;91.99
64858;SHT30;51335;51.148;6.950;2023-01-28T02:13:42;0.89;91.88
64858;SHT30;51335;51.148;6.950;2023-01-28T02:14:13;0.84;91.83
64858;SHT30;51335;51.148;6.950;2023-01-28T02:14:51;0.80;91.85
64858;SHT30;51335;51.148;6.950;2023-01-28T02:15:24;0.77;91.93
64858;SHT30;51335;51.148;6.950;2023-01-28T02:15:54;0.77;92.11
64858;SHT30;51335;51.148;6.950;2023-01-28T02:16:26;0.77;92.16
64858;SHT30;51335;51.148;6.950;2023-01-28T02:16:59;0.74;92.26
64858;SHT30;51335;51.148;6.950;2023-01-28T02:17:30;0.70;92.31
64858;SHT30;51335;51.148;6.950;2023-01-28T02:18:01;0.74;92.41
64858;SHT30;51335;51.148;6.950;2023-01-28T02:18:32;0.71;92.40
64858;SHT30;51335;51.148;6.950;2023-01-28T02:19:02;0.70;92.47
64858;SHT30;51335;51.148;6.950;2023-01-28T02:19:39;0.75;92.51
64858;SHT30;51335;51.148;6.950;2023-01-28T02:20:13;0.77;92.45
64858;SHT30;51335;51.148;6.950;2023-01-28T02:27:03;0.95;91.74
64858;SHT30;51335;51.148;6.950;2023-01-28T02:29:14;1.12;91.14
64858;SHT30;51335;51.148;6.950;2023-01-28T02:30:03;1.13;91.17
64858;SHT30;51335;51.148;6.950;2023-01-28T02:30:38;1.18;90.93
64858;SHT30;51335;51.148;6.950;2023-01-28T02:31:20;1.22;90.83
64858;SHT30;51335;51.148;6.950;2023-01-28T02:31:57;1.32;90.62
64858;SHT30;51335;51.148;6.950;2023-01-28T02:32:45;1.39;90.24
64858;SHT30;51335;51.148;6.950;2023-01-28T02:33:35;1.42;90.16
64858;SHT30;51335;51.148;6.950;2023-01-28T02:34:53;1.40;90.09
64858;SHT30;51335;51.148;6.950;2023-01-28T02:35:42;1.44;90.00
64858;SHT30;51335;51.148;6.950;2023-01-28T02:36:24;1.53;89.83
64858;SHT30;51335;51.148;6.950;2023-01-28T02:37:00;1.51;89.70
64858;SHT30;51335;51.148;6.950;2023-01-28T02:37:39;1.46;89.61
64858;SHT30;51335;51.148;6.950;2023-01-28T02:38:57;1.42;89.88
64858;SHT30;51335;51.148;6.950;2023-01-28T02:39:37;1.39;90.02
64858;SHT30;51335;51.148;6.950;2023-01-28T02:40:12;1.47;89.93
64858;SHT30;51335;51.148;6.950;2023-01-28T02:40:48;1.54;89.69
64858;SHT30;51335;51.148;6.950;2023-01-28T02:41:32;1.53;89.32
64858;SHT30;51335;51.148;6.950;2023-01-28T02:42:14;1.57;89.30
64858;SHT30;51335;51.148;6.950;2023-01-28T02:42:46;1.59;89.24
64858;SHT30;51335;51.148;6.950;2023-01-28T02:43:16;1.54;89.13
64858;SHT30;51335;51.148;6.950;2023-01-28T02:43:46;1.53;89.20
64858;SHT30;51335;51.148;6.950;2023-01-28T02:44:16;1.51;89.24
64858;SHT30;51335;51.148;6.950;2023-01-28T02:44:47;1.59;89.22
64858;SHT30;51335;51.148;6.950;2023-01-28T02:45:30;1.63;89.12
64858;SHT30;51335;51.148;6.950;2023-01-28T02:46:11;1.68;89.07
64858;SHT30;51335;51.148;6.950;2023-01-28T02:46:42;1.71;88.89
64858;SHT30;51335;51.148;6.950;2023-01-28T02:47:14;1.66;88.73
64858;SHT30;51335;51.148;6.950;2023-01-28T02:47:44;1.67;88.78
64858;SHT30;51335;51.148;6.950;2023-01-28T02:48:15;1.74;88.74
64858;SHT30;51335;51.148;6.950;2023-01-28T02:48:47;1.80;88.58
64858;SHT30;51335;51.148;6.950;2023-01-28T02:49:20;1.81;88.52
64858;SHT30;51335;51.148;6.950;2023-01-28T02:49:54;1.73;88.26
64858;SHT30;51335;51.148;6.950;2023-01-28T02:50:33;1.67;88.73
64858;SHT30;51335;51.148;6.950;2023-01-28T02:53:18;1.66;88.73
64858;SHT30;51335;51.148;6.950;2023-01-28T02:54:36;1.67;88.60
64858;SHT30;51335;51.148;6.950;2023-01-28T02:55:11;1.78;88.51
64858;SHT30;51335;51.148;6.950;2023-01-28T02:56:55;1.81;88.09
64858;SHT30;51335;51.148;6.950;2023-01-28T02:58:20;1.78;88.02
64858;SHT30;51335;51.148;6.950;2023-01-28T02:59:35;1.73;88.23
64858;SHT30;51335;51.148;6.950;2023-01-28T03:01:02;1.80;87.86
64858;SHT30;51335;51.148;6.950;2023-01-28T03:01:41;1.80;87.87
64858;SHT30;51335;51.148;6.950;2023-01-28T03:03:09;1.77;88.00
64858;SHT30;51335;51.148;6.950;2023-01-28T03:03:53;1.87;87.76
64858;SHT30;51335;51.148;6.950;2023-01-28T03:04:30;1.88;87.56
64858;SHT30;51335;51.148;6.950;2023-01-28T03:05:45;1.91;87.51
64858;SHT30;51335;51.148;6.950;2023-01-28T03:06:20;1.93;87.45
64858;SHT30;51335;51.148;6.950;2023-01-28T03:06:54;1.91;87.38
64858;SHT30;51335;51.148;6.950;2023-01-28T03:07:28;1.93;87.54
64858;SHT30;51335;51.148;6.950;2023-01-28T03:08:02;1.95;87.56
64858;SHT30;51335;51.148;6.950;2023-01-28T03:08:38;2.01;87.43
64858;SHT30;51335;51.148;6.950;2023-01-28T03:09:10;1.97;87.40
64858;SHT30;51335;51.148;6.950;2023-01-28T03:09:44;1.99;87.47
64858;SHT30;51335;51.148;6.950;2023-01-28T03:10:19;1.93;87.19
64858;SHT30;51335;51.148;6.950;2023-01-28T03:10:52;1.88;87.37
64858;SHT30;51335;51.148;6.950;2023-01-28T03:11:24;1.84;87.53
64858;SHT30;51335;51.148;6.950;2023-01-28T03:12:13;1.94;87.46
64858;SHT30;51335;51.148;6.950;2023-01-28T03:12:48;1.91;87.44
64858;SHT30;51335;51.148;6.950;2023-01-28T03:13:20;1.95;87.44
64858;SHT30;51335;51.148;6.950;2023-01-28T03:13:51;1.97;87.30
64858;SHT30;51335;51.148;6.950;2023-01-28T03:14:22;1.97;87.33
64858;SHT30;51335;51.148;6.950;2023-01-28T03:14:59;1.97;87.43
64858;SHT30;51335;51.148;6.950;2023-01-28T03:15:37;2.01;87.10
64858;SHT30;51335;51.148;6.950;2023-01-28T03:16:09;2.02;87.14
64858;SHT30;51335;51.148;6.950;2023-01-28T03:16:40;2.02;87.05
64858;SHT30;51335;51.148;6.950;2023-01-28T03:17:17;2.04;86.99
64858;SHT30;51335;51.148;6.950;2023-01-28T03:18:48;2.05;87.01
64858;SHT30;51335;51.148;6.950;2023-01-28T03:19:20;2.05;86.89
64858;SHT30;51335;51.148;6.950;2023-01-28T03:19:53;2.08;86.94
64858;SHT30;51335;51.148;6.950;2023-01-28T03:20:26;2.09;86.82
64858;SHT30;51335;51.148;6.950;2023-01-28T03:21:47;2.05;86.72
64858;SHT30;51335;51.148;6.950;2023-01-28T03:22:18;2.05;86.59
64858;SHT30;51335;51.148;6.950;2023-01-28T03:22:50;1.98;86.72
64858;SHT30;51335;51.148;6.950;2023-01-28T03:23:28;1.99;87.00
64858;SHT30;51335;51.148;6.950;2023-01-28T03:24:08;1.99;87.05
64858;SHT30;51335;51.148;6.950;2023-01-28T03:24:47;2.05;87.00
64858;SHT30;51335;51.148;6.950;2023-01-28T03:25:20;2.07;86.77
64858;SHT30;51335;51.148;6.950;2023-01-28T03:25:55;2.07;86.81
64858;SHT30;51335;51.148;6.950;2023-01-28T03:26:29;2.08;86.95
64858;SHT30;51335;51.148;6.950;2023-01-28T03:27:54;2.08;86.81
64858;SHT30;51335;51.148;6.950;2023-01-28T03:28:27;2.08;86.81
64858;SHT30;51335;51.148;6.950;2023-01-28T03:29:05;2.12;86.82
64858;SHT30;51335;51.148;6.950;2023-01-28T03:29:36;2.11;86.81
64858;SHT30;51335;51.148;6.950;2023-01-28T03:30:19;2.11;86.86
64858;SHT30;51335;51.148;6.950;2023-01-28T03:31:28;2.09;86.70
64858;SHT30;51335;51.148;6.950;2023-01-28T03:31:59;2.09;86.65
64858;SHT30;51335;51.148;6.950;2023-01-28T03:32:31;2.11;86.58
64858;SHT30;51335;51.148;6.950;2023-01-28T03:33:03;2.09;86.61
64858;SHT30;51335;51.148;6.950;2023-01-28T03:33:35;2.09;86.65
64858;SHT30;51335;51.148;6.950;2023-01-28T03:34:07;2.12;86.61
64858;SHT30;51335;51.148;6.950;2023-01-28T03:34:38;2.11;86.60
64858;SHT30;51335;51.148;6.950;2023-01-28T03:35:09;2.07;86.64
64858;SHT30;51335;51.148;6.950;2023-01-28T03:35:42;2.07;86.69
64858;SHT30;51335;51.148;6.950;2023-01-28T03:36:13;2.14;86.75
64858;SHT30;51335;51.148;6.950;2023-01-28T03:36:45;2.11;86.75
64858;SHT30;51335;51.148;6.950;2023-01-28T03:37:16;2.09;86.73
64858;SHT30;51335;51.148;6.950;2023-01-28T03:37:46;2.11;86.76
64858;SHT30;51335;51.148;6.950;2023-01-28T03:38:18;2.11;86.58
64858;SHT30;51335;51.148;6.950;2023-01-28T03:38:49;2.11;86.66
64858;SHT30;51335;51.148;6.950;2023-01-28T03:39:25;2.11;86.59
64858;SHT30;51335;51.148;6.950;2023-01-28T03:40:00;2.09;86.56
64858;SHT30;51335;51.148;6.950;2023-01-28T03:40:31;2.11;86.58
64858;SHT30;51335;51.148;6.950;2023-01-28T03:41:02;2.14;86.58
64858;SHT30;51335;51.148;6.950;2023-01-28T03:41:33;2.14;86.55
64858;SHT30;51335;51.148;6.950;2023-01-28T03:42:06;2.14;86.43
64858;SHT30;51335;51.148;6.950;2023-01-28T03:42:36;2.11;86.44
64858;SHT30;51335;51.148;6.950;2023-01-28T03:43:06;2.11;86.38
64858;SHT30;51335;51.148;6.950;2023-01-28T03:43:37;2.09;86.48
64858;SHT30;51335;51.148;6.950;2023-01-28T03:44:07;2.09;86.59
64858;SHT30;51335;51.148;6.950;2023-01-28T03:44:37;2.09;86.44
64858;SHT30;51335;51.148;6.950;2023-01-28T03:45:08;2.12;86.49
64858;SHT30;51335;51.148;6.950;2023-01-28T03:45:38;2.11;86.41
64858;SHT30;51335;51.148;6.950;2023-01-28T03:46:09;2.01;86.38
64858;SHT30;51335;51.148;6.950;2023-01-28T03:46:39;2.05;86.57
64858;SHT30;51335;51.148;6.950;2023-01-28T03:47:10;2.09;86.64
64858;SHT30;51335;51.148;6.950;2023-01-28T03:47:41;2.07;86.42
64858;SHT30;51335;51.148;6.950;2023-01-28T03:48:11;2.11;86.45
64858;SHT30;51335;51.148;6.950;2023-01-28T03:48:42;2.14;86.51
64858;SHT30;51335;51.148;6.950;2023-01-28T03:49:12;2.15;86.41
64858;SHT30;51335;51.148;6.950;2023-01-28T03:49:44;2.14;86.33
64858;SHT30;51335;51.148;6.950;2023-01-28T03:50:15;2.12;86.50
64858;SHT30;51335;51.148;6.950;2023-01-28T03:50:46;2.14;86.50
64858;SHT30;51335;51.148;6.950;2023-01-28T03:51:16;2.11;86.46
64858;SHT30;51335;51.148;6.950;2023-01-28T03:51:46;2.15;86.55
64858;SHT30;51335;51.148;6.950;2023-01-28T03:52:28;2.18;86.43
64858;SHT30;51335;51.148;6.950;2023-01-28T03:52:59;2.18;86.24